sensor_id;sensor_type;location;lat;lon;timestamp;temperature;humidity
70708;SHT30;58277;47.316;18.908;2023-03-20T00:00:32;10.35;53.63
70708;SHT30;58277;47.316;18.908;2023-03-20T00:02:56;10.32;53.90
70708;SHT30;58277;47.316;18.908;2023-03-20T00:05:21;10.30;53.90
70708;SHT30;58277;47.316;18.908;2023-03-20T00:07:45;10.27;53.99
70708;SHT30;58277;47.316;18.908;2023-03-20T00:10:08;10.25;54.10
70708;SHT30;58277;47.316;18.908;2023-03-20T00:12:31;10.24;54.09
70708;SHT30;58277;47.316;18.908;2023-03-20T00:14:54;10.22;54.17
70708;SHT30;58277;47.316;18.908;2023-03-20T00:17:19;10.18;54.13
70708;SHT30;58277;47.316;18.908;2023-03-20T00:19:43;10.18;54.13
70708;SHT30;58277;47.316;18.908;2023-03-20T00:22:07;10.22;54.12
70708;SHT30;58277;47.316;18.908;2023-03-20T00:24:30;10.22;53.96
70708;SHT30;58277;47.316;18.908;2023-03-20T00:26:53;10.25;54.05
70708;SHT30;58277;47.316;18.908;2023-03-20T00:29:22;10.25;54.23
70708;SHT30;58277;47.316;18.908;2023-03-20T00:31:45;10.30;53.99
70708;SHT30;58277;47.316;18.908;2023-03-20T00:34:12;10.27;54.25
70708;SHT30;58277;47.316;18.908;2023-03-20T00:36:35;10.24;54.33
70708;SHT30;58277;47.316;18.908;2023-03-20T00:38:58;10.22;54.38
70708;SHT30;58277;47.316;18.908;2023-03-20T00:43:48;10.27;54.39
70708;SHT30;58277;47.316;18.908;2023-03-20T00:46:13;10.44;53.87
70708;SHT30;58277;47.316;18.908;2023-03-20T00:48:37;10.49;53.95
70708;SHT30;58277;47.316;18.908;2023-03-20T00:51:02;10.59;53.57
70708;SHT30;58277;47.316;18.908;2023-03-20T00:53:26;10.46;53.73
70708;SHT30;58277;47.316;18.908;2023-03-20T00:55:49;10.41;53.77
70708;SHT30;58277;47.316;18.908;2023-03-20T00:58:12;10.41;53.57
70708;SHT30;58277;47.316;18.908;2023-03-20T01:00:42;10.30;53.91
70708;SHT30;58277;47.316;18.908;2023-03-20T01:03:17;10.14;54.05
70708;SHT30;58277;47.316;18.908;2023-03-20T01:05:44;10.14;54.28
70708;SHT30;58277;47.316;18.908;2023-03-20T01:08:25;10.34;53.76
70708;SHT30;58277;47.316;18.908;2023-03-20T01:10:56;10.32;53.64
70708;SHT30;58277;47.316;18.908;2023-03-20T01:13:28;10.18;53.94
70708;SHT30;58277;47.316;18.908;2023-03-20T01:15:53;10.25;53.85
70708;SHT30;58277;47.316;18.908;2023-03-20T01:18:18;10.35;53.59
70708;SHT30;58277;47.316;18.908;2023-03-20T01:20:42;10.30;53.63
70708;SHT30;58277;47.316;18.908;2023-03-20T01:23:05;10.38;53.34
70708;SHT30;58277;47.316;18.908;2023-03-20T01:25:28;10.27;53.65
70708;SHT30;58277;47.316;18.908;2023-03-20T01:27:52;10.32;53.61
70708;SHT30;58277;47.316;18.908;2023-03-20T01:30:24;10.40;53.40
70708;SHT30;58277;47.316;18.908;2023-03-20T01:32:48;10.40;53.45
70708;SHT30;58277;47.316;18.908;2023-03-20T01:35:14;10.61;52.93
70708;SHT30;58277;47.316;18.908;2023-03-20T01:37:37;10.63;52.73
70708;SHT30;58277;47.316;18.908;2023-03-20T01:40:00;10.72;52.96
70708;SHT30;58277;47.316;18.908;2023-03-20T01:42:26;10.86;52.70
70708;SHT30;58277;47.316;18.908;2023-03-20T01:44:49;10.81;52.55
70708;SHT30;58277;47.316;18.908;2023-03-20T01:47:18;10.93;52.59
70708;SHT30;58277;47.316;18.908;2023-03-20T01:52:49;10.79;52.15
70708;SHT30;58277;47.316;18.908;2023-03-20T01:55:15;10.73;52.60
70708;SHT30;58277;47.316;18.908;2023-03-20T01:57:43;10.75;52.57
70708;SHT30;58277;47.316;18.908;2023-03-20T02:00:09;10.83;52.35
70708;SHT30;58277;47.316;18.908;2023-03-20T02:02:39;10.86;52.23
70708;SHT30;58277;47.316;18.908;2023-03-20T02:05:07;10.52;53.01
70708;SHT30;58277;47.316;18.908;2023-03-20T02:07:32;10.51;53.39
70708;SHT30;58277;47.316;18.908;2023-03-20T02:10:06;10.45;53.31
70708;SHT30;58277;47.316;18.908;2023-03-20T02:12:50;10.56;52.87
70708;SHT30;58277;47.316;18.908;2023-03-20T02:15:25;10.62;52.63
70708;SHT30;58277;47.316;18.908;2023-03-20T02:18:18;10.53;52.75
70708;SHT30;58277;47.316;18.908;2023-03-20T02:20:52;10.55;52.51
70708;SHT30;58277;47.316;18.908;2023-03-20T02:23:49;10.68;52.37
70708;SHT30;58277;47.316;18.908;2023-03-20T02:26:39;10.62;52.49
70708;SHT30;58277;47.316;18.908;2023-03-20T02:35:12;10.49;52.58
70708;SHT30;58277;47.316;18.908;2023-03-20T02:37:40;10.34;53.17
70708;SHT30;58277;47.316;18.908;2023-03-20T02:44:12;10.34;53.45
70708;SHT30;58277;47.316;18.908;2023-03-20T02:46:12;10.04;53.74
70708;SHT30;58277;47.316;18.908;2023-03-20T02:48:50;9.94;54.15
70708;SHT30;58277;47.316;18.908;2023-03-20T02:51:22;9.94;54.70
70708;SHT30;58277;47.316;18.908;2023-03-20T02:53:54;9.77;54.74
70708;SHT30;58277;47.316;18.908;2023-03-20T02:56:23;9.75;54.77
70708;SHT30;58277;47.316;18.908;2023-03-20T02:59:10;9.79;55.07
70708;SHT30;58277;47.316;18.908;2023-03-20T03:01:44;9.60;55.58
70708;SHT30;58277;47.316;18.908;2023-03-20T03:04:14;9.77;55.36
70708;SHT30;58277;47.316;18.908;2023-03-20T03:06:41;9.70;55.72
70708;SHT30;58277;47.316;18.908;2023-03-20T03:09:09;9.69;56.53
70708;SHT30;58277;47.316;18.908;2023-03-20T03:11:35;9.70;56.58
70708;SHT30;58277;47.316;18.908;2023-03-20T03:14:00;9.66;56.40
70708;SHT30;58277;47.316;18.908;2023-03-20T03:16:27;9.53;56.78
70708;SHT30;58277;47.316;18.908;2023-03-20T03:19:07;9.50;57.02
70708;SHT30;58277;47.316;18.908;2023-03-20T03:21:32;9.35;57.18
70708;SHT30;58277;47.316;18.908;2023-03-20T03:23:58;9.25;57.11
70708;SHT30;58277;47.316;18.908;2023-03-20T03:26:24;9.29;57.53
70708;SHT30;58277;47.316;18.908;2023-03-20T03:28:57;9.35;58.34
70708;SHT30;58277;47.316;18.908;2023-03-20T03:31:23;9.38;58.11
70708;SHT30;58277;47.316;18.908;2023-03-20T03:33:49;9.34;58.08
70708;SHT30;58277;47.316;18.908;2023-03-20T03:36:50;9.24;57.89
70708;SHT30;58277;47.316;18.908;2023-03-20T03:39:44;9.12;57.89
70708;SHT30;58277;47.316;18.908;2023-03-20T03:47:38;8.98;58.32
70708;SHT30;58277;47.316;18.908;2023-03-20T03:50:10;9.03;57.97
70708;SHT30;58277;47.316;18.908;2023-03-20T03:52:36;8.85;59.04
70708;SHT30;58277;47.316;18.908;2023-03-20T03:55:07;8.83;59.07
70708;SHT30;58277;47.316;18.908;2023-03-20T03:57:54;8.79;59.00
70708;SHT30;58277;47.316;18.908;2023-03-20T04:00:20;8.76;59.05
70708;SHT30;58277;47.316;18.908;2023-03-20T04:02:52;8.79;58.67
70708;SHT30;58277;47.316;18.908;2023-03-20T04:05:17;8.73;58.75
70708;SHT30;58277;47.316;18.908;2023-03-20T04:07:45;8.77;58.71
70708;SHT30;58277;47.316;18.908;2023-03-20T04:10:08;8.67;58.84
70708;SHT30;58277;47.316;18.908;2023-03-20T04:12:37;8.52;60.19
70708;SHT30;58277;47.316;18.908;2023-03-20T04:15:04;8.43;60.81
70708;SHT30;58277;47.316;18.908;2023-03-20T04:17:28;8.43;60.49
70708;SHT30;58277;47.316;18.908;2023-03-20T04:19:51;8.36;60.55
70708;SHT30;58277;47.316;18.908;2023-03-20T04:22:14;8.28;60.84
70708;SHT30;58277;47.316;18.908;2023-03-20T04:24:37;8.21;60.91
70708;SHT30;58277;47.316;18.908;2023-03-20T04:27:00;8.20;61.05
70708;SHT30;58277;47.316;18.908;2023-03-20T04:29:23;8.21;60.64
70708;SHT30;58277;47.316;18.908;2023-03-20T04:32:04;8.06;61.47
70708;SHT30;58277;47.316;18.908;2023-03-20T04:34:53;7.98;61.58
70708;SHT30;58277;47.316;18.908;2023-03-20T04:37:36;7.97;61.81
70708;SHT30;58277;47.316;18.908;2023-03-20T04:40:02;7.85;62.21
70708;SHT30;58277;47.316;18.908;2023-03-20T04:42:25;7.94;62.02
70708;SHT30;58277;47.316;18.908;2023-03-20T04:44:53;7.80;62.78
70708;SHT30;58277;47.316;18.908;2023-03-20T04:47:16;7.74;62.63
70708;SHT30;58277;47.316;18.908;2023-03-20T04:49:39;7.73;62.64
70708;SHT30;58277;47.316;18.908;2023-03-20T04:52:03;7.69;63.17
70708;SHT30;58277;47.316;18.908;2023-03-20T04:54:38;7.70;63.11
70708;SHT30;58277;47.316;18.908;2023-03-20T04:57:01;7.71;62.97
70708;SHT30;58277;47.316;18.908;2023-03-20T04:59:24;7.63;63.95
70708;SHT30;58277;47.316;18.908;2023-03-20T05:01:46;7.64;63.83
70708;SHT30;58277;47.316;18.908;2023-03-20T05:04:09;7.71;63.34
70708;SHT30;58277;47.316;18.908;2023-03-20T05:06:32;7.80;63.48
70708;SHT30;58277;47.316;18.908;2023-03-20T05:08:55;7.81;63.32
70708;SHT30;58277;47.316;18.908;2023-03-20T05:11:18;7.71;63.43
70708;SHT30;58277;47.316;18.908;2023-03-20T05:14:10;7.73;63.41
70708;SHT30;58277;47.316;18.908;2023-03-20T05:16:37;7.76;63.36
70708;SHT30;58277;47.316;18.908;2023-03-20T05:19:33;7.71;63.46
70708;SHT30;58277;47.316;18.908;2023-03-20T05:22:02;7.74;63.86
70708;SHT30;58277;47.316;18.908;2023-03-20T05:24:44;7.81;63.38
70708;SHT30;58277;47.316;18.908;2023-03-20T05:27:30;7.64;64.20
70708;SHT30;58277;47.316;18.908;2023-03-20T05:30:19;7.81;63.55
70708;SHT30;58277;47.316;18.908;2023-03-20T05:33:03;7.90;63.27
70708;SHT30;58277;47.316;18.908;2023-03-20T05:35:32;7.95;63.47
70708;SHT30;58277;47.316;18.908;2023-03-20T05:38:20;8.06;63.33
70708;SHT30;58277;47.316;18.908;2023-03-20T05:41:04;8.24;62.73
70708;SHT30;58277;47.316;18.908;2023-03-20T05:43:51;8.41;61.73
70708;SHT30;58277;47.316;18.908;2023-03-20T05:46:28;8.52;61.27
70708;SHT30;58277;47.316;18.908;2023-03-20T05:49:06;8.63;61.07
70708;SHT30;58277;47.316;18.908;2023-03-20T05:51:47;8.70;60.98
70708;SHT30;58277;47.316;18.908;2023-03-20T05:54:29;8.88;60.72
70708;SHT30;58277;47.316;18.908;2023-03-20T05:57:18;9.21;59.87
70708;SHT30;58277;47.316;18.908;2023-03-20T05:59:47;9.50;59.12
70708;SHT30;58277;47.316;18.908;2023-03-20T06:02:33;9.76;58.40
70708;SHT30;58277;47.316;18.908;2023-03-20T06:05:04;9.77;58.14
70708;SHT30;58277;47.316;18.908;2023-03-20T06:07:36;9.93;57.83
70708;SHT30;58277;47.316;18.908;2023-03-20T06:10:05;10.24;56.61
70708;SHT30;58277;47.316;18.908;2023-03-20T06:12:28;10.55;55.85
70708;SHT30;58277;47.316;18.908;2023-03-20T06:14:51;10.75;54.80
70708;SHT30;58277;47.316;18.908;2023-03-20T06:17:15;10.83;54.71
70708;SHT30;58277;47.316;18.908;2023-03-20T06:19:43;10.97;53.40
70708;SHT30;58277;47.316;18.908;2023-03-20T06:22:20;11.03;53.90
70708;SHT30;58277;47.316;18.908;2023-03-20T06:24:43;11.14;53.75
70708;SHT30;58277;47.316;18.908;2023-03-20T06:27:07;11.54;52.83
70708;SHT30;58277;47.316;18.908;2023-03-20T06:29:31;12.12;51.28
70708;SHT30;58277;47.316;18.908;2023-03-20T06:32:06;12.75;48.97
70708;SHT30;58277;47.316;18.908;2023-03-20T06:34:30;12.92;47.57
70708;SHT30;58277;47.316;18.908;2023-03-20T06:36:53;13.42;47.38
70708;SHT30;58277;47.316;18.908;2023-03-20T06:39:18;13.43;46.67
70708;SHT30;58277;47.316;18.908;2023-03-20T06:41:42;13.55;46.39
70708;SHT30;58277;47.316;18.908;2023-03-20T06:44:06;13.78;46.05
70708;SHT30;58277;47.316;18.908;2023-03-20T06:46:47;13.88;44.80
70708;SHT30;58277;47.316;18.908;2023-03-20T06:49:11;14.63;44.53
70708;SHT30;58277;47.316;18.908;2023-03-20T06:51:35;15.32;41.96
70708;SHT30;58277;47.316;18.908;2023-03-20T06:54:00;15.36;42.27
70708;SHT30;58277;47.316;18.908;2023-03-20T06:56:23;15.62;41.28
70708;SHT30;58277;47.316;18.908;2023-03-20T06:58:47;15.76;41.65
70708;SHT30;58277;47.316;18.908;2023-03-20T07:01:15;15.84;40.33
70708;SHT30;58277;47.316;18.908;2023-03-20T07:03:39;15.69;41.34
70708;SHT30;58277;47.316;18.908;2023-03-20T07:06:04;15.71;40.43
70708;SHT30;58277;47.316;18.908;2023-03-20T07:08:28;15.87;39.78
70708;SHT30;58277;47.316;18.908;2023-03-20T07:10:57;15.80;39.65
70708;SHT30;58277;47.316;18.908;2023-03-20T07:13:20;16.10;39.50
70708;SHT30;58277;47.316;18.908;2023-03-20T07:15:43;16.15;39.31
70708;SHT30;58277;47.316;18.908;2023-03-20T07:18:28;16.58;38.70
70708;SHT30;58277;47.316;18.908;2023-03-20T07:20:58;16.83;37.42
70708;SHT30;58277;47.316;18.908;2023-03-20T07:23:25;16.75;38.49
70708;SHT30;58277;47.316;18.908;2023-03-20T07:25:49;16.32;38.73
70708;SHT30;58277;47.316;18.908;2023-03-20T07:28:15;16.15;39.53
70708;SHT30;58277;47.316;18.908;2023-03-20T07:30:44;16.25;38.98
70708;SHT30;58277;47.316;18.908;2023-03-20T07:33:11;15.97;39.22
70708;SHT30;58277;47.316;18.908;2023-03-20T07:35:35;15.67;40.20
70708;SHT30;58277;47.316;18.908;2023-03-20T07:37:59;15.59;40.69
70708;SHT30;58277;47.316;18.908;2023-03-20T07:40:23;15.96;40.70
70708;SHT30;58277;47.316;18.908;2023-03-20T07:43:07;16.31;39.67
70708;SHT30;58277;47.316;18.908;2023-03-20T07:46:07;16.15;40.06
70708;SHT30;58277;47.316;18.908;2023-03-20T07:48:33;15.94;39.58
70708;SHT30;58277;47.316;18.908;2023-03-20T07:50:59;16.00;40.50
70708;SHT30;58277;47.316;18.908;2023-03-20T07:53:22;16.19;40.24
70708;SHT30;58277;47.316;18.908;2023-03-20T07:55:46;16.41;39.59
70708;SHT30;58277;47.316;18.908;2023-03-20T07:58:09;16.77;39.48
70708;SHT30;58277;47.316;18.908;2023-03-20T08:00:34;17.21;37.80
70708;SHT30;58277;47.316;18.908;2023-03-20T08:02:58;17.63;37.81
70708;SHT30;58277;47.316;18.908;2023-03-20T08:05:21;17.87;36.88
70708;SHT30;58277;47.316;18.908;2023-03-20T08:07:49;18.09;35.78
70708;SHT30;58277;47.316;18.908;2023-03-20T08:10:13;18.38;36.20
70708;SHT30;58277;47.316;18.908;2023-03-20T08:12:36;18.85;34.65
70708;SHT30;58277;47.316;18.908;2023-03-20T08:14:59;18.96;34.26
70708;SHT30;58277;47.316;18.908;2023-03-20T08:17:24;19.34;34.51
70708;SHT30;58277;47.316;18.908;2023-03-20T08:19:48;19.00;33.71
70708;SHT30;58277;47.316;18.908;2023-03-20T08:22:11;18.75;34.52
70708;SHT30;58277;47.316;18.908;2023-03-20T08:24:34;18.86;34.31
70708;SHT30;58277;47.316;18.908;2023-03-20T08:26:58;18.61;34.73
70708;SHT30;58277;47.316;18.908;2023-03-20T08:29:21;18.55;34.89
70708;SHT30;58277;47.316;18.908;2023-03-20T08:31:45;18.44;34.34
70708;SHT30;58277;47.316;18.908;2023-03-20T08:34:07;18.33;35.57
70708;SHT30;58277;47.316;18.908;2023-03-20T08:36:30;18.28;35.18
70708;SHT30;58277;47.316;18.908;2023-03-20T08:38:53;18.64;34.28
70708;SHT30;58277;47.316;18.908;2023-03-20T08:41:17;18.36;34.56
70708;SHT30;58277;47.316;18.908;2023-03-20T08:43:40;18.59;34.57
70708;SHT30;58277;47.316;18.908;2023-03-20T08:46:04;18.44;34.66
70708;SHT30;58277;47.316;18.908;2023-03-20T08:48:27;18.44;35.82
70708;SHT30;58277;47.316;18.908;2023-03-20T08:50:51;18.40;35.23
70708;SHT30;58277;47.316;18.908;2023-03-20T08:53:25;18.52;34.51
70708;SHT30;58277;47.316;18.908;2023-03-20T08:55:50;18.51;34.68
70708;SHT30;58277;47.316;18.908;2023-03-20T08:58:17;18.65;35.70
70708;SHT30;58277;47.316;18.908;2023-03-20T09:00:41;18.52;35.56
70708;SHT30;58277;47.316;18.908;2023-03-20T09:03:14;18.69;35.02
70708;SHT30;58277;47.316;18.908;2023-03-20T09:05:40;18.33;35.40
70708;SHT30;58277;47.316;18.908;2023-03-20T09:08:03;18.49;35.57
70708;SHT30;58277;47.316;18.908;2023-03-20T09:10:26;18.44;35.86
70708;SHT30;58277;47.316;18.908;2023-03-20T09:12:49;18.73;35.54
70708;SHT30;58277;47.316;18.908;2023-03-20T09:15:12;18.73;34.97
70708;SHT30;58277;47.316;18.908;2023-03-20T09:17:35;18.62;35.70
70708;SHT30;58277;47.316;18.908;2023-03-20T09:19:58;18.98;35.14
70708;SHT30;58277;47.316;18.908;2023-03-20T09:22:21;18.59;35.52
70708;SHT30;58277;47.316;18.908;2023-03-20T09:24:45;18.38;35.63
70708;SHT30;58277;47.316;18.908;2023-03-20T09:27:09;18.33;35.73
70708;SHT30;58277;47.316;18.908;2023-03-20T09:29:35;18.49;36.09
70708;SHT30;58277;47.316;18.908;2023-03-20T09:31:59;18.76;35.94
70708;SHT30;58277;47.316;18.908;2023-03-20T09:34:22;18.59;36.35
70708;SHT30;58277;47.316;18.908;2023-03-20T09:36:46;18.36;36.48
70708;SHT30;58277;47.316;18.908;2023-03-20T09:39:10;18.62;35.99
70708;SHT30;58277;47.316;18.908;2023-03-20T09:41:33;19.04;36.01
70708;SHT30;58277;47.316;18.908;2023-03-20T09:47:36;18.66;36.88
70708;SHT30;58277;47.316;18.908;2023-03-20T09:55:29;19.19;35.73
70708;SHT30;58277;47.316;18.908;2023-03-20T09:57:57;19.13;35.34
70708;SHT30;58277;47.316;18.908;2023-03-20T10:00:27;19.34;35.39
70708;SHT30;58277;47.316;18.908;2023-03-20T10:06:12;19.58;35.14
70708;SHT30;58277;47.316;18.908;2023-03-20T10:08:37;19.35;35.51
70708;SHT30;58277;47.316;18.908;2023-03-20T10:11:14;19.46;35.41
70708;SHT30;58277;47.316;18.908;2023-03-20T10:22:01;19.54;35.02
70708;SHT30;58277;47.316;18.908;2023-03-20T10:24:31;19.71;33.75
70708;SHT30;58277;47.316;18.908;2023-03-20T10:26:58;19.72;34.09
70708;SHT30;58277;47.316;18.908;2023-03-20T10:43:16;19.75;33.98
70708;SHT30;58277;47.316;18.908;2023-03-20T10:45:48;19.81;33.49
70708;SHT30;58277;47.316;18.908;2023-03-20T10:48:36;19.96;33.36
70708;SHT30;58277;47.316;18.908;2023-03-20T10:51:01;19.99;33.47
70708;SHT30;58277;47.316;18.908;2023-03-20T10:53:31;20.04;33.26
70708;SHT30;58277;47.316;18.908;2023-03-20T10:56:07;20.13;32.30
70708;SHT30;58277;47.316;18.908;2023-03-20T10:58:36;20.41;32.94
70708;SHT30;58277;47.316;18.908;2023-03-20T11:01:00;20.17;33.08
70708;SHT30;58277;47.316;18.908;2023-03-20T11:03:29;20.19;32.70
70708;SHT30;58277;47.316;18.908;2023-03-20T11:06:05;19.86;33.18
70708;SHT30;58277;47.316;18.908;2023-03-20T11:08:38;19.79;33.01
70708;SHT30;58277;47.316;18.908;2023-03-20T11:11:05;19.93;32.79
70708;SHT30;58277;47.316;18.908;2023-03-20T11:13:42;19.90;32.58
70708;SHT30;58277;47.316;18.908;2023-03-20T11:16:28;19.71;33.05
70708;SHT30;58277;47.316;18.908;2023-03-20T11:18:52;20.04;33.54
70708;SHT30;58277;47.316;18.908;2023-03-20T11:21:26;20.23;33.02
70708;SHT30;58277;47.316;18.908;2023-03-20T11:23:50;19.96;33.78
70708;SHT30;58277;47.316;18.908;2023-03-20T11:26:26;20.09;32.85
70708;SHT30;58277;47.316;18.908;2023-03-20T11:28:58;20.00;33.54
70708;SHT30;58277;47.316;18.908;2023-03-20T11:31:34;20.06;33.20
70708;SHT30;58277;47.316;18.908;2023-03-20T11:36:46;19.92;33.25
70708;SHT30;58277;47.316;18.908;2023-03-20T11:39:31;19.75;33.90
70708;SHT30;58277;47.316;18.908;2023-03-20T11:41:57;19.68;33.69
70708;SHT30;58277;47.316;18.908;2023-03-20T11:44:26;19.79;34.59
70708;SHT30;58277;47.316;18.908;2023-03-20T11:47:11;19.99;34.00
70708;SHT30;58277;47.316;18.908;2023-03-20T11:49:54;19.79;33.86
70708;SHT30;58277;47.316;18.908;2023-03-20T11:52:24;19.74;33.98
70708;SHT30;58277;47.316;18.908;2023-03-20T11:54:52;19.86;33.81
70708;SHT30;58277;47.316;18.908;2023-03-20T11:57:35;19.72;34.36
70708;SHT30;58277;47.316;18.908;2023-03-20T12:00:03;19.62;34.22
70708;SHT30;58277;47.316;18.908;2023-03-20T12:02:26;19.61;33.94
70708;SHT30;58277;47.316;18.908;2023-03-20T12:04:49;19.43;34.22
70708;SHT30;58277;47.316;18.908;2023-03-20T12:07:16;19.34;34.55
70708;SHT30;58277;47.316;18.908;2023-03-20T12:09:51;19.34;34.89
70708;SHT30;58277;47.316;18.908;2023-03-20T12:12:33;19.37;34.57
70708;SHT30;58277;47.316;18.908;2023-03-20T12:17:57;19.00;35.14
70708;SHT30;58277;47.316;18.908;2023-03-20T12:20:39;19.19;34.51
70708;SHT30;58277;47.316;18.908;2023-03-20T12:25:52;19.07;34.99
70708;SHT30;58277;47.316;18.908;2023-03-20T12:28:19;19.09;34.94
70708;SHT30;58277;47.316;18.908;2023-03-20T12:31:06;19.03;34.83
70708;SHT30;58277;47.316;18.908;2023-03-20T12:33:56;19.12;35.32
70708;SHT30;58277;47.316;18.908;2023-03-20T12:38:51;19.53;34.57
70708;SHT30;58277;47.316;18.908;2023-03-20T12:41:23;19.38;34.72
70708;SHT30;58277;47.316;18.908;2023-03-20T12:52:00;19.37;35.13
70708;SHT30;58277;47.316;18.908;2023-03-20T13:10:22;19.37;35.10
70708;SHT30;58277;47.316;18.908;2023-03-20T13:20:54;19.70;34.43
70708;SHT30;58277;47.316;18.908;2023-03-20T13:23:29;19.34;35.92
70708;SHT30;58277;47.316;18.908;2023-03-20T13:28:45;19.28;35.53
70708;SHT30;58277;47.316;18.908;2023-03-20T13:31:26;19.35;35.11
70708;SHT30;58277;47.316;18.908;2023-03-20T13:39:33;19.40;36.35
70708;SHT30;58277;47.316;18.908;2023-03-20T13:41:58;19.34;36.47
70708;SHT30;58277;47.316;18.908;2023-03-20T13:44:24;19.28;36.67
70708;SHT30;58277;47.316;18.908;2023-03-20T13:47:02;19.12;36.66
70708;SHT30;58277;47.316;18.908;2023-03-20T13:52:02;19.06;36.49
70708;SHT30;58277;47.316;18.908;2023-03-20T13:54:45;19.09;36.64
70708;SHT30;58277;47.316;18.908;2023-03-20T13:57:25;19.12;36.17
70708;SHT30;58277;47.316;18.908;2023-03-20T14:03:24;19.23;36.87
70708;SHT30;58277;47.316;18.908;2023-03-20T14:05:50;19.19;37.30
70708;SHT30;58277;47.316;18.908;2023-03-20T14:10:47;19.28;36.86
70708;SHT30;58277;47.316;18.908;2023-03-20T14:13:17;19.31;36.46
70708;SHT30;58277;47.316;18.908;2023-03-20T14:15:51;19.23;37.34
70708;SHT30;58277;47.316;18.908;2023-03-20T14:18:16;19.10;37.18
70708;SHT30;58277;47.316;18.908;2023-03-20T14:20:41;19.13;37.53
70708;SHT30;58277;47.316;18.908;2023-03-20T14:23:05;19.14;37.28
70708;SHT30;58277;47.316;18.908;2023-03-20T14:25:33;19.12;37.59
70708;SHT30;58277;47.316;18.908;2023-03-20T14:30:47;18.73;38.49
70708;SHT30;58277;47.316;18.908;2023-03-20T14:35:40;18.73;38.83
70708;SHT30;58277;47.316;18.908;2023-03-20T14:38:34;18.61;39.12
70708;SHT30;58277;47.316;18.908;2023-03-20T14:41:07;18.77;38.48
70708;SHT30;58277;47.316;18.908;2023-03-20T14:48:52;18.79;38.25
70708;SHT30;58277;47.316;18.908;2023-03-20T14:51:23;18.93;38.79
70708;SHT30;58277;47.316;18.908;2023-03-20T14:54:22;18.86;38.49
70708;SHT30;58277;47.316;18.908;2023-03-20T14:56:46;18.77;38.83
70708;SHT30;58277;47.316;18.908;2023-03-20T14:59:10;18.76;39.20
70708;SHT30;58277;47.316;18.908;2023-03-20T15:07:13;18.13;40.56
70708;SHT30;58277;47.316;18.908;2023-03-20T15:09:40;18.04;40.87
70708;SHT30;58277;47.316;18.908;2023-03-20T15:12:05;17.79;41.57
70708;SHT30;58277;47.316;18.908;2023-03-20T15:14:44;17.63;42.41
70708;SHT30;58277;47.316;18.908;2023-03-20T15:17:20;17.46;43.01
70708;SHT30;58277;47.316;18.908;2023-03-20T15:19:44;17.30;43.53
70708;SHT30;58277;47.316;18.908;2023-03-20T15:22:15;17.31;43.34
70708;SHT30;58277;47.316;18.908;2023-03-20T15:24:39;17.51;43.16
70708;SHT30;58277;47.316;18.908;2023-03-20T15:27:01;17.59;43.02
70708;SHT30;58277;47.316;18.908;2023-03-20T15:29:26;17.59;43.32
70708;SHT30;58277;47.316;18.908;2023-03-20T15:31:57;17.66;43.44
70708;SHT30;58277;47.316;18.908;2023-03-20T15:34:37;17.68;42.71
70708;SHT30;58277;47.316;18.908;2023-03-20T15:37:01;17.56;43.06
70708;SHT30;58277;47.316;18.908;2023-03-20T15:39:28;17.52;43.06
70708;SHT30;58277;47.316;18.908;2023-03-20T15:41:57;17.53;43.03
70708;SHT30;58277;47.316;18.908;2023-03-20T15:44:26;17.61;43.31
70708;SHT30;58277;47.316;18.908;2023-03-20T15:47:00;17.80;42.70
70708;SHT30;58277;47.316;18.908;2023-03-20T15:49:23;17.85;42.05
70708;SHT30;58277;47.316;18.908;2023-03-20T15:51:48;17.94;42.20
70708;SHT30;58277;47.316;18.908;2023-03-20T15:54:15;18.00;42.15
70708;SHT30;58277;47.316;18.908;2023-03-20T15:56:39;18.00;42.43
70708;SHT30;58277;47.316;18.908;2023-03-20T15:59:13;17.99;42.55
70708;SHT30;58277;47.316;18.908;2023-03-20T16:01:37;17.91;43.08
70708;SHT30;58277;47.316;18.908;2023-03-20T16:04:00;17.90;42.90
70708;SHT30;58277;47.316;18.908;2023-03-20T16:06:24;17.86;42.90
70708;SHT30;58277;47.316;18.908;2023-03-20T16:08:58;17.71;43.43
70708;SHT30;58277;47.316;18.908;2023-03-20T16:11:23;17.65;43.47
70708;SHT30;58277;47.316;18.908;2023-03-20T16:13:46;17.39;44.41
70708;SHT30;58277;47.316;18.908;2023-03-20T16:16:15;17.28;44.28
70708;SHT30;58277;47.316;18.908;2023-03-20T16:18:39;17.06;44.88
70708;SHT30;58277;47.316;18.908;2023-03-20T16:21:06;16.84;45.54
70708;SHT30;58277;47.316;18.908;2023-03-20T16:25:57;16.44;46.78
70708;SHT30;58277;47.316;18.908;2023-03-20T16:28:21;16.29;47.14
70708;SHT30;58277;47.316;18.908;2023-03-20T16:30:44;16.05;48.15
70708;SHT30;58277;47.316;18.908;2023-03-20T16:33:15;15.93;48.46
70708;SHT30;58277;47.316;18.908;2023-03-20T16:35:47;15.79;48.92
70708;SHT30;58277;47.316;18.908;2023-03-20T16:38:56;15.53;49.82
70708;SHT30;58277;47.316;18.908;2023-03-20T16:41:35;15.45;49.87
70708;SHT30;58277;47.316;18.908;2023-03-20T16:44:05;15.28;50.37
70708;SHT30;58277;47.316;18.908;2023-03-20T16:46:29;15.22;50.91
70708;SHT30;58277;47.316;18.908;2023-03-20T16:48:57;15.18;50.68
70708;SHT30;58277;47.316;18.908;2023-03-20T16:51:28;15.24;50.96
70708;SHT30;58277;47.316;18.908;2023-03-20T16:53:57;15.04;51.45
70708;SHT30;58277;47.316;18.908;2023-03-20T16:56:26;14.95;51.77
70708;SHT30;58277;47.316;18.908;2023-03-20T16:58:50;14.94;51.69
70708;SHT30;58277;47.316;18.908;2023-03-20T17:01:19;14.78;52.27
70708;SHT30;58277;47.316;18.908;2023-03-20T17:06:25;14.59;52.78
70708;SHT30;58277;47.316;18.908;2023-03-20T17:08:52;14.53;52.69
70708;SHT30;58277;47.316;18.908;2023-03-20T17:11:30;14.50;52.55
70708;SHT30;58277;47.316;18.908;2023-03-20T17:13:54;14.43;52.71
70708;SHT30;58277;47.316;18.908;2023-03-20T17:16:19;14.36;53.05
70708;SHT30;58277;47.316;18.908;2023-03-20T17:18:45;14.33;53.05
70708;SHT30;58277;47.316;18.908;2023-03-20T17:21:09;14.30;53.09
70708;SHT30;58277;47.316;18.908;2023-03-20T17:23:32;14.28;53.10
70708;SHT30;58277;47.316;18.908;2023-03-20T17:25:55;14.19;53.35
70708;SHT30;58277;47.316;18.908;2023-03-20T17:28:21;14.04;53.82
70708;SHT30;58277;47.316;18.908;2023-03-20T17:30:45;13.89;54.33
70708;SHT30;58277;47.316;18.908;2023-03-20T17:33:12;13.58;55.40
70708;SHT30;58277;47.316;18.908;2023-03-20T17:35:36;13.42;55.71
70708;SHT30;58277;47.316;18.908;2023-03-20T17:37:59;13.34;55.81
70708;SHT30;58277;47.316;18.908;2023-03-20T17:40:22;13.23;56.33
70708;SHT30;58277;47.316;18.908;2023-03-20T17:42:47;13.37;56.00
70708;SHT30;58277;47.316;18.908;2023-03-20T17:45:15;13.37;55.77
70708;SHT30;58277;47.316;18.908;2023-03-20T17:47:43;13.10;56.79